createdAt,value
2023-03-30T00:13:55.332Z,69.33
2023-03-30T01:13:57.233Z,69.41
2023-03-30T01:17:08.076Z,69.38
2023-03-30T01:33:06.386Z,71.79
2023-03-30T02:01:29.506Z,73.89
2023-03-30T02:04:14.839Z,74.11
2023-03-30T02:06:25.670Z,74.55
2023-03-30T02:08:37.042Z,74.94
2023-03-30T02:10:46.765Z,75.34
2023-03-30T02:12:53.395Z,75.57
2023-03-30T02:15:01.710Z,75.77
2023-03-30T02:17:11.567Z,75.91
2023-03-30T02:19:19.959Z,76.17
2023-03-30T02:21:24.939Z,76.30
2023-03-30T02:23:37.094Z,76.50
2023-03-30T02:25:44.434Z,76.74
2023-03-30T02:27:49.806Z,76.61
2023-03-30T02:29:57.000Z,77.01
2023-03-30T02:32:03.084Z,77.00
2023-03-30T02:34:25.654Z,77.40
2023-03-30T02:36:46.730Z,77.37
2023-03-30T02:39:05.257Z,77.61
2023-03-30T03:07:09.313Z,76.61
2023-03-30T03:09:15.483Z,76.93
2023-03-30T03:11:20.217Z,76.55
2023-03-30T03:13:24.986Z,76.55
2023-03-30T03:15:30.487Z,76.92
2023-03-30T03:17:35.651Z,76.97
2023-03-30T03:19:43.101Z,77.20
2023-03-30T03:21:47.976Z,77.21
2023-03-30T03:23:53.224Z,77.15
2023-03-30T03:25:58.076Z,77.19
2023-03-30T03:28:04.461Z,77.26
2023-03-30T03:30:11.468Z,77.30
2023-03-30T03:32:16.778Z,77.65
2023-03-30T03:34:22.011Z,78.14
2023-03-30T03:36:29.442Z,77.86
2023-03-30T03:42:57.127Z,78.12
2023-03-30T04:00:43.290Z,79.05
2023-03-30T04:02:48.163Z,79.07
2023-03-30T04:04:53.786Z,80.95
2023-03-30T04:06:58.622Z,82.12
2023-03-30T04:09:04.146Z,83.43
2023-03-30T04:11:14.845Z,85.07
2023-03-30T04:13:19.624Z,85.83
2023-03-30T04:15:24.411Z,85.91
2023-03-30T04:17:29.254Z,86.01
2023-03-30T04:19:33.991Z,86.31
2023-03-30T04:21:41.337Z,86.61
2023-03-30T04:23:50.481Z,86.35
2023-03-30T04:25:55.227Z,85.91
2023-03-30T04:28:05.426Z,86.48
2023-03-30T04:30:15.565Z,86.50
2023-03-30T04:32:21.352Z,86.50
2023-03-30T04:34:26.998Z,86.51
2023-03-30T04:36:32.174Z,86.67
2023-03-30T04:38:38.420Z,86.80
2023-03-30T04:40:43.235Z,85.84
2023-03-30T04:42:50.229Z,85.38
2023-03-30T04:44:57.547Z,85.55
2023-03-30T04:47:02.560Z,85.28
2023-03-30T04:49:08.057Z,85.29
2023-03-30T04:51:13.314Z,85.07
2023-03-30T04:53:19.705Z,85.17
2023-03-30T04:55:24.746Z,84.97
2023-03-30T04:57:31.814Z,84.76
2023-03-30T04:59:36.742Z,85.11
2023-03-30T05:01:46.984Z,85.01
2023-03-30T05:03:52.328Z,84.77
2023-03-30T05:05:59.767Z,84.11
2023-03-30T05:08:05.196Z,84.08
2023-03-30T05:10:10.881Z,83.82
2023-03-30T05:12:16.003Z,83.97
2023-03-30T05:14:20.844Z,84.23
2023-03-30T05:16:28.648Z,84.68
2023-03-30T05:18:36.286Z,84.50
2023-03-30T05:20:41.335Z,84.87
2023-03-30T05:22:47.257Z,84.84
2023-03-30T05:24:54.944Z,85.16
2023-03-30T05:26:59.769Z,85.29
2023-03-30T05:29:04.608Z,85.08
2023-03-30T05:31:09.830Z,85.64
2023-03-30T05:33:14.938Z,85.79
2023-03-30T05:35:22.348Z,85.04
2023-03-30T05:37:27.406Z,85.47
2023-03-30T05:39:32.454Z,85.13
2023-03-30T05:41:37.189Z,85.72
2023-03-30T05:43:42.433Z,85.28
2023-03-30T05:45:47.292Z,85.74
2023-03-30T05:47:52.286Z,85.69
2023-03-30T05:49:57.313Z,85.63
2023-03-30T05:52:05.381Z,85.54
2023-03-30T05:54:10.274Z,85.80
2023-03-30T05:56:15.201Z,85.50
2023-03-30T05:58:21.212Z,85.32
2023-03-30T06:00:26.874Z,85.33
2023-03-30T06:02:59.070Z,85.01
2023-03-30T06:05:18.918Z,85.23
2023-03-30T06:10:14.179Z,85.02
2023-03-30T06:12:34.713Z,84.87
2023-03-30T06:15:15.693Z,84.71
2023-03-30T06:17:57.687Z,84.72
2023-03-30T06:20:25.532Z,84.99
2023-03-30T06:22:45.167Z,84.74
2023-03-30T06:25:18.839Z,84.89
2023-03-30T06:27:33.189Z,84.78
2023-03-30T06:29:53.392Z,84.82
2023-03-30T06:34:31.336Z,84.71
2023-03-30T06:36:44.583Z,84.36
2023-03-30T06:38:55.073Z,84.59
2023-03-30T06:41:00.008Z,84.55
2023-03-30T06:43:04.913Z,84.86
2023-03-30T06:45:11.445Z,84.69
2023-03-30T06:47:16.303Z,84.72
2023-03-30T06:49:21.461Z,84.56
2023-03-30T06:51:26.961Z,84.79
2023-03-30T06:53:31.816Z,84.21
2023-03-30T06:55:39.479Z,84.17
2023-03-30T06:57:46.816Z,84.04
2023-03-30T06:59:52.219Z,84.03
2023-03-30T07:01:57.131Z,83.55
2023-03-30T07:04:02.944Z,82.88
2023-03-30T07:06:09.652Z,82.56
2023-03-30T07:08:14.834Z,82.53
2023-03-30T07:10:19.820Z,82.61
2023-03-30T07:12:27.501Z,82.62
2023-03-30T07:14:33.833Z,82.09
2023-03-30T07:16:39.884Z,82.18
2023-03-30T07:18:44.862Z,82.45
2023-03-30T07:20:49.784Z,82.78
2023-03-30T07:22:54.715Z,83.01
2023-03-30T07:24:59.528Z,82.75
2023-03-30T07:27:04.305Z,83.24
2023-03-30T07:29:12.204Z,83.34
2023-03-30T07:31:17.521Z,83.34
2023-03-30T07:33:22.496Z,83.40
2023-03-30T07:35:27.758Z,83.44
2023-03-30T07:37:32.535Z,83.44
2023-03-30T07:39:38.653Z,83.32
2023-03-30T07:41:44.870Z,83.39
2023-03-30T07:43:49.804Z,83.67
2023-03-30T07:45:57.206Z,83.89
2023-03-30T07:48:02.315Z,83.60
2023-03-30T07:50:07.920Z,83.92
2023-03-30T07:52:12.978Z,83.60
2023-03-30T07:54:18.320Z,83.32
2023-03-30T07:56:24.288Z,83.45
2023-03-30T07:58:29.519Z,83.00
2023-03-30T08:00:34.364Z,82.94
2023-03-30T08:02:45.001Z,82.92
2023-03-30T08:04:50.165Z,82.69
2023-03-30T08:06:56.606Z,82.21
2023-03-30T08:09:01.637Z,81.32
2023-03-30T08:14:31.955Z,80.61
2023-03-30T08:22:54.809Z,79.16
2023-03-30T08:34:46.814Z,75.14
2023-03-30T08:37:46.646Z,74.11
2023-03-30T08:40:24.598Z,73.81
2023-03-30T08:46:02.650Z,72.86
2023-03-30T08:48:45.604Z,71.83
2023-03-30T08:51:43.131Z,71.86
2023-03-30T08:54:25.799Z,71.67
2023-03-30T08:57:03.442Z,71.86
2023-03-30T08:59:26.891Z,72.49
2023-03-30T09:01:49.455Z,71.53
2023-03-30T09:04:21.930Z,71.66
2023-03-30T09:06:55.566Z,71.32
2023-03-30T09:12:16.305Z,70.34
2023-03-30T09:15:08.629Z,69.22
2023-03-30T09:20:48.410Z,69.40
2023-03-30T09:23:46.409Z,69.96
2023-03-30T09:26:54.610Z,70.41
2023-03-30T09:29:56.705Z,70.82
2023-03-30T09:38:39.410Z,68.74
2023-03-30T09:43:55.839Z,67.61
2023-03-30T09:46:46.370Z,67.26
2023-03-30T09:49:37.944Z,67.21
2023-03-30T09:52:19.555Z,66.15
2023-03-30T09:54:54.925Z,64.92
2023-03-30T10:00:35.570Z,64.72
2023-03-30T10:03:49.335Z,64.33
2023-03-30T10:09:18.430Z,65.58
2023-03-30T10:15:15.796Z,65.25
2023-03-30T10:17:59.021Z,66.21
2023-03-30T10:20:39.884Z,67.16
2023-03-30T10:23:27.323Z,66.48
2023-03-30T10:40:56.226Z,63.61
2023-03-30T10:50:04.565Z,65.56
2023-03-30T10:52:58.888Z,65.02
2023-03-30T10:55:28.761Z,66.66
2023-03-30T10:58:30.788Z,67.56
2023-03-30T11:04:45.105Z,67.58
2023-03-30T11:19:59.655Z,66.95
2023-03-30T11:26:23.329Z,68.31
2023-03-30T11:33:25.259Z,71.34
2023-03-30T11:38:49.559Z,75.17
2023-03-30T11:41:18.467Z,75.67
2023-03-30T11:43:42.082Z,75.89
2023-03-30T11:49:15.362Z,77.26
2023-03-30T11:51:54.458Z,76.16
2023-03-30T11:54:32.536Z,76.95
2023-03-30T11:56:47.118Z,77.72
2023-03-30T11:59:01.651Z,78.45
2023-03-30T12:01:23.520Z,78.80
2023-03-30T12:06:54.480Z,80.68
2023-03-30T12:19:16.279Z,81.10
2023-03-30T12:21:48.529Z,81.77
2023-03-30T12:24:12.449Z,81.56
2023-03-30T12:26:31.648Z,82.41
2023-03-30T12:32:03.728Z,83.16
2023-03-30T12:41:20.839Z,81.77
2023-03-30T12:44:21.098Z,81.33
2023-03-30T12:46:56.012Z,80.56
2023-03-30T12:49:12.040Z,80.24
2023-03-30T12:51:37.256Z,80.12
2023-03-30T12:54:28.458Z,79.28
2023-03-30T12:56:41.083Z,79.12
2023-03-30T12:59:06.273Z,78.45
2023-03-30T13:01:43.188Z,78.64
2023-03-30T13:03:54.613Z,78.36
2023-03-30T13:06:03.803Z,77.36
2023-03-30T13:08:20.725Z,76.76
2023-03-30T13:10:42.525Z,75.91
2023-03-30T13:12:49.577Z,76.57
2023-03-30T13:15:01.829Z,74.49
2023-03-30T13:17:16.213Z,74.27
2023-03-30T13:19:33.380Z,75.07
2023-03-30T13:21:56.299Z,73.94
2023-03-30T13:24:31.498Z,73.38
2023-03-30T13:26:47.793Z,71.90
2023-03-30T13:29:24.419Z,72.61
2023-03-30T13:31:47.206Z,72.26
2023-03-30T13:34:00.633Z,72.64
2023-03-30T13:36:14.539Z,72.99
2023-03-30T13:38:34.114Z,72.51
2023-03-30T13:41:16.454Z,73.26
2023-03-30T13:43:41.149Z,73.28
2023-03-30T13:46:16.247Z,73.71
2023-03-30T13:49:35.326Z,72.92
2023-03-30T13:52:04.472Z,72.17
2023-03-30T13:54:30.630Z,71.09
2023-03-30T13:57:23.881Z,71.04
2023-03-30T14:00:07.127Z,70.34
2023-03-30T14:02:27.843Z,70.27
2023-03-30T14:04:44.014Z,70.30
2023-03-30T14:07:00.659Z,69.76
2023-03-30T14:09:25.470Z,69.48
2023-03-30T14:11:47.943Z,69.54
2023-03-30T14:14:10.115Z,68.62
2023-03-30T14:16:22.738Z,68.45
2023-03-30T14:18:35.950Z,68.89
2023-03-30T14:20:58.920Z,68.65
2023-03-30T14:23:08.367Z,67.84
2023-03-30T14:25:32.361Z,69.28
2023-03-30T14:27:44.994Z,69.15
2023-03-30T14:29:59.690Z,69.35
2023-03-30T14:32:21.620Z,70.39
2023-03-30T14:34:31.174Z,70.32
2023-03-30T14:36:46.565Z,70.49
2023-03-30T14:39:03.504Z,70.49
2023-03-30T14:41:26.019Z,69.75
2023-03-30T14:43:57.974Z,68.98
2023-03-30T14:46:15.009Z,69.68
2023-03-30T14:48:31.000Z,69.18
2023-03-30T14:53:30.920Z,70.38
2023-03-30T14:56:13.824Z,70.58
2023-03-30T14:58:43.682Z,69.77
2023-03-30T15:03:57.691Z,69.17
2023-03-30T15:06:03.371Z,68.61
2023-03-30T15:08:09.482Z,68.88
2023-03-30T15:10:25.306Z,68.95
2023-03-30T15:12:35.786Z,68.69
2023-03-30T15:14:43.156Z,67.91
2023-03-30T15:16:53.922Z,67.47
2023-03-30T15:19:09.726Z,66.66
2023-03-30T15:21:16.626Z,66.90
2023-03-30T15:23:23.497Z,66.26
2023-03-30T15:25:34.383Z,66.52
2023-03-30T15:27:40.940Z,67.26
2023-03-30T15:29:47.368Z,66.76
2023-03-30T15:32:09.545Z,66.98
2023-03-30T15:34:18.807Z,67.21
2023-03-30T15:36:25.842Z,66.96
2023-03-30T15:38:37.454Z,67.19
2023-03-30T15:40:44.999Z,66.82
2023-03-30T15:42:51.233Z,66.63
2023-03-30T15:45:05.541Z,66.86
2023-03-30T15:47:17.746Z,67.01
2023-03-30T15:49:25.062Z,67.52
2023-03-30T15:51:36.173Z,67.44
2023-03-30T15:53:46.682Z,68.33
2023-03-30T15:55:54.673Z,68.90
2023-03-30T15:58:00.208Z,68.45
2023-03-30T16:00:09.318Z,68.70
2023-03-30T16:02:22.114Z,68.32
2023-03-30T16:04:27.897Z,68.48
2023-03-30T16:06:32.665Z,68.20
2023-03-30T16:08:42.228Z,67.98
2023-03-30T16:10:48.967Z,68.49
2023-03-30T16:12:55.469Z,67.84
2023-03-30T16:15:01.708Z,68.22
2023-03-30T16:17:06.623Z,68.73
2023-03-30T16:19:17.739Z,69.33
2023-03-30T16:21:24.797Z,69.14
2023-03-30T16:23:30.096Z,69.57
2023-03-30T16:25:44.874Z,69.70
2023-03-30T16:27:50.360Z,69.81
2023-03-30T16:29:57.085Z,69.98
2023-03-30T16:32:02.511Z,70.26
2023-03-30T16:34:08.467Z,70.42
2023-03-30T16:36:20.199Z,70.58
2023-03-30T16:38:25.653Z,71.16
2023-03-30T16:40:35.924Z,71.36
2023-03-30T16:42:40.746Z,71.61
2023-03-30T16:44:45.991Z,71.91
2023-03-30T16:46:54.467Z,71.61
2023-03-30T16:48:59.158Z,71.57
2023-03-30T16:51:04.839Z,71.14
2023-03-30T16:53:15.471Z,71.21
2023-03-30T16:55:21.309Z,71.42
2023-03-30T16:57:26.114Z,71.40
2023-03-30T16:59:32.655Z,71.22
2023-03-30T17:01:37.477Z,71.27
2023-03-30T17:03:42.836Z,71.68
2023-03-30T17:05:49.068Z,72.39
2023-03-30T17:07:59.436Z,72.80
2023-03-30T17:10:41.658Z,73.21
2023-03-30T17:13:09.511Z,73.89
2023-03-30T17:15:22.229Z,73.89
2023-03-30T17:17:34.611Z,74.07
2023-03-30T17:19:49.509Z,74.48
2023-03-30T17:22:45.917Z,74.61
2023-03-30T17:31:27.711Z,74.95
2023-03-30T17:40:18.557Z,75.75
2023-03-30T17:43:06.618Z,75.56
2023-03-30T17:45:22.805Z,76.16
2023-03-30T17:47:27.615Z,76.92
2023-03-30T17:49:32.477Z,76.99
2023-03-30T17:51:41.281Z,76.91
2023-03-30T17:53:46.309Z,77.20
2023-03-30T17:55:52.567Z,77.38
2023-03-30T17:57:57.963Z,78.06
2023-03-30T18:00:03.874Z,77.88
2023-03-30T18:02:11.628Z,77.74
2023-03-30T18:04:16.456Z,77.99
2023-03-30T18:06:21.362Z,78.33
2023-03-30T18:08:27.323Z,78.45
2023-03-30T18:10:38.712Z,78.48
2023-03-30T18:12:43.613Z,78.84
2023-03-30T18:14:48.496Z,79.03
2023-03-30T18:17:01.331Z,79.13
2023-03-30T18:25:44.438Z,79.41
2023-03-30T18:27:49.551Z,79.77
2023-03-30T18:29:54.295Z,79.74
2023-03-30T18:31:59.149Z,79.56
2023-03-30T18:34:04.228Z,79.74
2023-03-30T18:36:13.470Z,79.46
2023-03-30T18:38:25.527Z,79.84
2023-03-30T18:40:36.833Z,79.70
2023-03-30T18:42:45.608Z,79.93
2023-03-30T18:44:50.643Z,80.19
2023-03-30T18:46:55.556Z,80.07
2023-03-30T18:49:00.394Z,80.02
2023-03-30T18:51:05.232Z,80.05
2023-03-30T18:53:12.984Z,80.14
2023-03-30T18:55:20.659Z,80.25
2023-03-30T18:57:28.074Z,80.26
2023-03-30T18:59:32.832Z,80.40
2023-03-30T19:01:38.254Z,80.49
2023-03-30T19:03:45.032Z,80.96
2023-03-30T19:05:50.502Z,81.16
2023-03-30T19:07:56.030Z,80.93
2023-03-30T19:10:01.361Z,81.01
2023-03-30T19:12:09.288Z,80.76
2023-03-30T19:14:20.363Z,80.59
2023-03-30T19:16:25.476Z,80.93
2023-03-30T19:18:30.639Z,80.49
2023-03-30T19:20:38.395Z,80.68
2023-03-30T19:22:43.777Z,80.52
2023-03-30T19:24:48.736Z,80.98
2023-03-30T19:26:53.640Z,80.90
2023-03-30T19:29:02.115Z,81.06
2023-03-30T19:31:10.387Z,80.54
2023-03-30T19:33:19.263Z,80.91
2023-03-30T19:35:24.525Z,80.67
2023-03-30T19:37:29.447Z,80.98
2023-03-30T19:39:34.828Z,80.60
2023-03-30T19:41:40.017Z,80.72
2023-03-30T19:43:45.746Z,80.63
2023-03-30T19:45:55.534Z,80.85
2023-03-30T19:48:02.673Z,80.92
2023-03-30T19:50:11.475Z,80.85
2023-03-30T19:52:21.490Z,80.90
2023-03-30T19:54:26.454Z,80.46
2023-03-30T19:56:33.670Z,80.24
2023-03-30T19:58:38.568Z,79.94
2023-03-30T20:00:47.450Z,80.44
2023-03-30T20:02:57.556Z,80.25
2023-03-30T20:05:03.497Z,80.50
2023-03-30T20:07:08.768Z,80.77
2023-03-30T20:09:13.550Z,80.88
2023-03-30T20:11:20.854Z,80.76
2023-03-30T20:13:27.687Z,80.79
2023-03-30T20:15:32.668Z,80.94
2023-03-30T20:17:41.292Z,81.32
2023-03-30T20:20:15.034Z,81.32
2023-03-30T20:22:40.191Z,81.17
2023-03-30T20:25:34.789Z,81.58
2023-03-30T20:27:48.915Z,81.74
2023-03-30T20:29:54.563Z,82.23
2023-03-30T20:34:42.596Z,82.38
2023-03-30T20:37:15.626Z,82.45
2023-03-30T20:40:15.464Z,82.89
2023-03-30T20:45:09.273Z,82.66
2023-03-30T20:48:13.921Z,82.80
2023-03-30T20:53:07.775Z,82.24
2023-03-30T20:55:52.196Z,81.98
2023-03-30T20:58:32.314Z,82.27
2023-03-30T21:01:36.140Z,82.29
2023-03-30T21:06:28.086Z,82.40
2023-03-30T21:09:11.760Z,82.43
2023-03-30T21:11:22.898Z,82.35
2023-03-30T21:13:43.603Z,82.34
2023-03-30T21:16:29.327Z,82.50
2023-03-30T21:18:50.929Z,82.31
2023-03-30T21:21:52.981Z,82.54
2023-03-30T21:24:52.463Z,82.31
2023-03-30T21:28:15.663Z,82.19
2023-03-30T21:37:06.682Z,82.34
2023-03-30T21:46:02.436Z,82.15
2023-03-30T21:49:20.082Z,82.26
2023-03-30T22:18:15.494Z,82.86
2023-03-30T22:24:32.372Z,82.92
2023-03-30T22:39:38.256Z,83.77
2023-03-30T22:42:06.297Z,83.40
2023-03-30T22:44:12.338Z,83.63
2023-03-30T22:46:19.785Z,84.02
2023-03-30T22:48:24.640Z,83.72
2023-03-30T22:50:31.434Z,83.97
2023-03-30T22:52:36.866Z,84.21
2023-03-30T22:54:41.916Z,84.48
2023-03-30T22:56:48.916Z,84.52
2023-03-30T22:58:53.707Z,84.96
2023-03-30T23:01:02.742Z,84.79
2023-03-30T23:03:10.963Z,85.23
2023-03-30T23:05:21.493Z,85.11
2023-03-30T23:08:17.758Z,85.36
2023-03-30T23:10:25.772Z,85.08
2023-03-30T23:12:36.977Z,85.27
2023-03-30T23:14:43.236Z,85.35
2023-03-30T23:16:48.869Z,85.50
2023-03-30T23:18:56.261Z,85.66
2023-03-30T23:21:16.790Z,85.80
2023-03-30T23:23:21.635Z,85.58
2023-03-30T23:25:26.805Z,85.60
2023-03-30T23:27:31.569Z,85.50
2023-03-30T23:29:36.499Z,85.72
2023-03-30T23:31:41.367Z,85.37
2023-03-30T23:33:47.084Z,85.46
2023-03-30T23:35:54.784Z,85.78
2023-03-30T23:37:59.794Z,85.69
2023-03-30T23:40:09.248Z,84.96
2023-03-30T23:42:14.711Z,84.99
2023-03-30T23:44:19.824Z,85.30
2023-03-30T23:46:27.012Z,85.52
2023-03-30T23:48:31.821Z,85.00
2023-03-30T23:50:38.693Z,84.84
2023-03-30T23:52:46.801Z,84.99
2023-03-30T23:54:54.224Z,84.84
2023-03-30T23:57:02.044Z,85.46
2023-03-30T23:59:12.496Z,85.09
